Time;durP1;ratioP1;P1;durP2;ratioP2;P2;SDS_P1;SDS_P2;PMS_P1;PMS_P2;Temp;Humidity;BMP_temperature;BMP_pressure;BME280_temperature;BME280_humidity;BME280_pressure;Samples;Min_cycle;Max_cycle;Signal;HPM_P1;HPM_P2
2021/09/11 00:02:05;;;;;;;7.20;6.50;;;18.60;99.90;;;;;;5047354;28;20486;-68
2021/09/11 00:04:32;;;;;;;7.20;6.50;;;18.60;99.90;;;;;;5047130;28;20467;-68
2021/09/11 00:06:59;;;;;;;7.40;6.70;;;18.60;99.90;;;;;;5047326;28;21015;-68
2021/09/11 00:09:25;;;;;;;7.47;6.77;;;18.60;99.90;;;;;;5046482;28;20468;-68
2021/09/11 00:11:52;;;;;;;7.90;7.10;;;18.60;99.90;;;;;;5046992;28;20471;-68
2021/09/11 00:14:19;;;;;;;6.90;6.30;;;18.60;99.90;;;;;;5046969;28;20483;-68
2021/09/11 00:16:45;;;;;;;6.67;6.07;;;18.50;99.90;;;;;;5130470;22;20482;-72
2021/09/11 00:19:13;;;;;;;7.23;6.63;;;18.50;99.90;;;;;;5064600;28;20950;-71
2021/09/11 00:21:40;;;;;;;6.47;5.87;;;18.50;99.90;;;;;;5068999;28;20466;-72
2021/09/11 00:24:07;;;;;;;6.70;6.20;;;18.50;99.90;;;;;;5067953;28;20830;-72
2021/09/11 00:26:34;;;;;;;8.10;7.40;;;18.50;99.90;;;;;;5069838;28;20462;-72
2021/09/11 00:29:00;;;;;;;7.07;6.50;;;18.40;99.90;;;;;;5067678;28;20584;-71
2021/09/11 00:31:27;;;;;;;7.30;6.70;;;18.40;99.90;;;;;;5069972;28;20465;-71
2021/09/11 00:33:54;;;;;;;7.70;6.87;;;18.40;99.90;;;;;;5069437;28;20489;-71
2021/09/11 00:36:22;;;;;;;7.20;6.50;;;18.40;99.90;;;;;;5069937;28;20458;-71
2021/09/11 00:38:49;;;;;;;8.07;6.83;;;18.40;99.90;;;;;;5069045;28;20490;-71
2021/09/11 00:41:16;;;;;;;6.40;5.80;;;18.40;99.90;;;;;;5069839;28;21079;-71
2021/09/11 00:43:46;;;;;;;7.73;6.67;;;18.40;99.90;;;;;;5069407;28;20458;-71
2021/09/11 00:46:13;;;;;;;6.83;6.23;;;18.40;99.90;;;;;;5069968;28;20462;-71
2021/09/11 00:48:40;;;;;;;6.10;5.60;;;18.40;99.90;;;;;;5072004;28;20988;-71
2021/09/11 00:51:07;;;;;;;6.37;5.80;;;18.40;99.90;;;;;;5073295;28;20466;-71
2021/09/11 00:53:35;;;;;;;6.23;5.70;;;18.30;99.90;;;;;;5073263;28;20489;-71
2021/09/11 00:56:02;;;;;;;7.50;6.80;;;18.40;99.90;;;;;;5073063;28;20462;-71
2021/09/11 00:58:30;;;;;;;6.57;5.63;;;18.30;99.90;;;;;;5072902;28;20489;-71
2021/09/11 01:00:56;;;;;;;6.33;5.83;;;18.30;99.90;;;;;;5073176;28;21052;-71
2021/09/11 01:03:23;;;;;;;7.13;6.53;;;18.30;99.90;;;;;;5072885;28;20465;-71
2021/09/11 01:05:50;;;;;;;7.00;6.40;;;18.30;99.90;;;;;;5072990;28;20462;-71
2021/09/11 01:08:16;;;;;;;6.63;6.13;;;18.20;99.90;;;;;;5083672;28;20560;-71
2021/09/11 01:10:44;;;;;;;7.33;6.67;;;18.20;99.90;;;;;;5078441;28;20984;-71
2021/09/11 01:13:12;;;;;;;7.00;6.27;;;18.20;99.90;;;;;;5072580;28;20596;-71
2021/09/11 01:15:41;;;;;;;7.03;6.33;;;18.20;99.90;;;;;;5072690;28;20462;-71
2021/09/11 01:18:09;;;;;;;6.77;6.10;;;18.10;99.90;;;;;;5072628;28;20485;-71
2021/09/11 01:20:36;;;;;;;6.63;5.40;;;18.10;99.90;;;;;;5072519;28;20469;-71
2021/09/11 01:23:03;;;;;;;7.53;6.60;;;18.10;99.90;;;;;;5072505;28;20458;-71
2021/09/11 01:25:31;;;;;;;7.17;6.53;;;18.00;99.90;;;;;;5072677;28;20466;-71
2021/09/11 01:27:58;;;;;;;6.60;6.00;;;18.00;99.90;;;;;;5072413;28;20478;-71
2021/09/11 01:30:25;;;;;;;6.90;6.30;;;18.00;99.90;;;;;;5072239;28;20458;-71
2021/09/11 01:32:52;;;;;;;6.10;5.60;;;17.90;99.90;;;;;;5072206;28;20459;-71
2021/09/11 01:35:19;;;;;;;6.80;6.10;;;17.90;99.90;;;;;;5072567;28;20486;-71
2021/09/11 01:37:46;;;;;;;6.50;6.00;;;17.90;99.90;;;;;;5072052;28;20490;-71
2021/09/11 01:40:13;;;;;;;7.93;7.23;;;17.90;99.90;;;;;;5072090;28;20466;-71
2021/09/11 01:42:41;;;;;;;6.90;6.17;;;17.80;99.90;;;;;;5072253;28;20458;-71
2021/09/11 01:45:11;;;;;;;6.50;6.00;;;17.80;99.90;;;;;;5072131;28;20462;-71
2021/09/11 01:47:38;;;;;;;6.80;6.20;;;17.80;99.90;;;;;;5072141;28;20588;-71
2021/09/11 01:50:07;;;;;;;7.17;6.47;;;17.70;99.90;;;;;;5071659;28;20465;-71
2021/09/11 01:52:34;;;;;;;7.03;6.43;;;17.70;99.90;;;;;;5072226;28;20462;-71
2021/09/11 01:55:01;;;;;;;7.00;6.03;;;17.60;99.90;;;;;;5071801;28;20478;-71
2021/09/11 01:57:27;;;;;;;7.03;6.33;;;17.60;99.90;;;;;;5072068;28;20833;-72
2021/09/11 01:59:55;;;;;;;7.27;6.57;;;17.60;99.90;;;;;;5071282;28;20455;-72
2021/09/11 02:02:22;;;;;;;7.40;6.70;;;17.60;99.90;;;;;;5071939;28;20455;-72
2021/09/11 02:04:49;;;;;;;7.13;6.53;;;17.60;99.90;;;;;;5071843;28;20466;-72
2021/09/11 02:07:15;;;;;;;7.40;6.70;;;17.60;99.90;;;;;;5071590;28;20478;-72
2021/09/11 02:09:42;;;;;;;7.27;6.67;;;17.60;99.90;;;;;;5071253;28;20545;-71
2021/09/11 02:12:09;;;;;;;10.30;6.73;;;17.60;99.90;;;;;;5071856;28;20458;-72
2021/09/11 02:14:36;;;;;;;7.47;6.87;;;17.60;99.90;;;;;;5071594;28;20486;-72
2021/09/11 02:17:04;;;;;;;8.40;7.30;;;17.60;99.90;;;;;;5071406;28;20493;-72
2021/09/11 02:19:33;;;;;;;7.37;6.77;;;17.60;99.90;;;;;;5071047;28;20946;-72
2021/09/11 02:21:59;;;;;;;7.50;6.80;;;17.60;99.90;;;;;;5071499;28;20459;-72
2021/09/11 02:24:26;;;;;;;7.30;6.60;;;17.60;99.90;;;;;;5071711;28;20466;-71
2021/09/11 02:26:53;;;;;;;8.00;6.87;;;17.60;99.90;;;;;;5071325;28;20858;-72
2021/09/11 02:29:20;;;;;;;7.63;6.93;;;17.50;99.90;;;;;;5071023;28;20470;-72
2021/09/11 02:31:46;;;;;;;7.10;6.40;;;17.50;99.90;;;;;;5071187;28;21186;-72
2021/09/11 02:34:15;;;;;;;7.70;6.90;;;17.50;99.90;;;;;;5071386;28;20490;-72
2021/09/11 02:36:41;;;;;;;6.30;5.80;;;17.50;99.90;;;;;;5071293;28;20466;-72
2021/09/11 02:39:08;;;;;;;7.13;6.53;;;17.50;99.90;;;;;;5070304;28;20466;-72
2021/09/11 02:41:35;;;;;;;7.63;7.03;;;17.40;99.90;;;;;;5071345;28;20465;-71
2021/09/11 02:44:02;;;;;;;7.20;6.57;;;17.50;99.90;;;;;;5070716;28;20941;-71
2021/09/11 02:46:30;;;;;;;6.97;6.37;;;17.40;99.90;;;;;;5071308;28;20827;-72
2021/09/11 02:48:56;;;;;;;6.70;6.10;;;17.40;99.90;;;;;;5070395;28;20478;-71
2021/09/11 02:51:24;;;;;;;7.47;6.77;;;17.40;99.90;;;;;;5070944;28;20972;-72
2021/09/11 02:53:51;;;;;;;7.20;6.60;;;17.40;99.90;;;;;;5070800;28;20490;-71
2021/09/11 02:56:19;;;;;;;7.20;6.60;;;17.40;99.90;;;;;;5070991;28;20442;-71
2021/09/11 02:58:46;;;;;;;6.60;5.97;;;17.40;99.90;;;;;;5070183;28;20478;-71
2021/09/11 03:01:12;;;;;;;6.43;5.93;;;17.40;99.90;;;;;;5071275;28;20462;-71
2021/09/11 03:03:39;;;;;;;7.33;6.63;;;17.40;99.90;;;;;;5070843;28;20462;-71
2021/09/11 03:06:06;;;;;;;6.17;5.67;;;17.40;99.90;;;;;;5071072;28;20465;-71
2021/09/11 03:08:34;;;;;;;6.80;6.20;;;17.40;99.90;;;;;;5070316;28;20482;-71
2021/09/11 03:11:01;;;;;;;7.87;6.70;;;17.40;99.90;;;;;;5070394;28;20463;-71
2021/09/11 03:13:27;;;;;;;7.00;6.40;;;17.40;99.90;;;;;;5070522;28;20486;-71
2021/09/11 03:15:54;;;;;;;7.07;6.37;;;17.40;99.90;;;;;;5070415;28;20856;-71
2021/09/11 03:18:21;;;;;;;6.60;6.10;;;17.40;99.90;;;;;;5070473;28;20890;-71
2021/09/11 03:20:47;;;;;;;5.70;5.20;;;17.50;99.90;;;;;;5070133;28;20501;-71
2021/09/11 03:23:15;;;;;;;5.83;5.33;;;17.40;99.90;;;;;;5070476;28;20465;-71
2021/09/11 03:25:43;;;;;;;7.03;6.43;;;17.40;99.90;;;;;;5070333;28;20459;-71
2021/09/11 03:28:10;;;;;;;6.40;5.80;;;17.40;99.90;;;;;;5070685;28;20486;-71
2021/09/11 03:30:37;;;;;;;7.40;5.60;;;17.40;99.90;;;;;;5070053;28;20467;-71
2021/09/11 03:33:04;;;;;;;6.30;5.80;;;17.40;99.90;;;;;;5070246;28;20855;-71
2021/09/11 03:35:31;;;;;;;6.00;5.50;;;17.40;99.90;;;;;;5070500;28;20481;-71
2021/09/11 03:37:58;;;;;;;5.90;5.40;;;17.40;99.90;;;;;;5069822;28;20482;-71
2021/09/11 03:40:25;;;;;;;6.07;5.47;;;17.40;99.90;;;;;;5069969;28;20466;-71
2021/09/11 03:42:53;;;;;;;6.10;5.50;;;17.40;99.90;;;;;;5070127;28;20838;-71
2021/09/11 03:45:19;;;;;;;5.63;5.23;;;17.40;99.90;;;;;;5070476;28;20451;-71
2021/09/11 03:47:46;;;;;;;5.83;5.23;;;17.40;99.90;;;;;;5070268;28;20486;-71
2021/09/11 03:50:13;;;;;;;6.20;5.70;;;17.40;99.90;;;;;;5070025;28;20972;-71
2021/09/11 03:52:40;;;;;;;6.37;5.70;;;17.40;99.90;;;;;;5070341;28;20983;-71
2021/09/11 03:55:08;;;;;;;5.90;5.40;;;17.40;99.90;;;;;;5069978;28;20482;-71
2021/09/11 03:57:34;;;;;;;5.37;4.97;;;17.40;99.90;;;;;;5070666;28;20478;-71
2021/09/11 04:00:03;;;;;;;6.00;5.50;;;17.40;99.90;;;;;;5069675;28;20459;-71
2021/09/11 04:02:29;;;;;;;4.87;4.47;;;17.40;99.90;;;;;;5070206;28;20466;-71
2021/09/11 04:04:56;;;;;;;4.80;4.37;;;17.40;99.90;;;;;;5070300;28;20462;-71
2021/09/11 04:07:23;;;;;;;5.17;4.67;;;17.40;99.90;;;;;;5070112;28;20515;-71
2021/09/11 04:09:49;;;;;;;5.33;4.80;;;17.40;99.90;;;;;;5069789;28;20954;-71
2021/09/11 04:12:16;;;;;;;5.30;4.57;;;17.40;99.90;;;;;;5070420;28;20463;-71
2021/09/11 04:14:43;;;;;;;4.90;4.50;;;17.30;99.90;;;;;;5069902;28;20478;-71
2021/09/11 04:17:11;;;;;;;4.77;4.33;;;17.30;99.90;;;;;;5070191;28;20490;-71
2021/09/11 04:19:37;;;;;;;5.07;4.57;;;17.40;99.90;;;;;;5069802;28;20474;-71
2021/09/11 04:22:05;;;;;;;4.60;4.20;;;17.40;99.90;;;;;;5070400;28;20458;-71
2021/09/11 04:24:31;;;;;;;4.93;4.53;;;17.40;99.90;;;;;;5074064;28;20462;-71
2021/09/11 04:26:58;;;;;;;4.90;4.50;;;17.30;99.90;;;;;;5073914;28;20483;-72
2021/09/11 04:29:25;;;;;;;4.30;3.93;;;17.30;99.90;;;;;;5073618;28;20477;-71
2021/09/11 04:31:51;;;;;;;4.57;4.00;;;17.30;99.90;;;;;;5073757;28;20463;-72
2021/09/11 04:34:19;;;;;;;4.93;4.53;;;17.30;99.90;;;;;;5073915;28;20462;-72
2021/09/11 04:36:46;;;;;;;4.70;4.30;;;17.30;99.90;;;;;;5073467;28;20462;-72
2021/09/11 04:39:13;;;;;;;4.73;4.33;;;17.30;99.90;;;;;;5073615;28;20466;-72
2021/09/11 04:41:39;;;;;;;4.37;4.07;;;17.30;99.90;;;;;;5074016;28;20458;-72
2021/09/11 04:44:06;;;;;;;5.33;4.60;;;17.30;99.90;;;;;;5073038;28;20458;-72
2021/09/11 04:46:33;;;;;;;4.67;4.27;;;17.30;99.90;;;;;;5073760;28;20465;-71
2021/09/11 04:48:59;;;;;;;5.20;4.70;;;17.30;99.90;;;;;;5072808;28;20482;-72
2021/09/11 04:51:27;;;;;;;5.10;4.50;;;17.30;99.90;;;;;;5073719;28;20472;-72
2021/09/11 04:53:54;;;;;;;5.57;4.87;;;17.30;99.90;;;;;;5073287;28;20466;-72
2021/09/11 04:56:21;;;;;;;4.93;4.53;;;17.30;99.90;;;;;;5073322;28;20485;-72
2021/09/11 04:58:48;;;;;;;4.37;3.93;;;17.30;99.90;;;;;;5072846;28;20537;-72
2021/09/11 05:01:15;;;;;;;4.77;4.37;;;17.30;99.90;;;;;;5073387;28;20470;-72
2021/09/11 05:03:41;;;;;;;5.30;4.80;;;17.30;99.90;;;;;;5073420;28;20465;-72
2021/09/11 05:06:08;;;;;;;5.43;4.57;;;17.20;99.90;;;;;;5073050;28;20458;-72
2021/09/11 05:08:36;;;;;;;5.67;5.17;;;17.20;99.90;;;;;;5073097;28;20558;-72
2021/09/11 05:11:03;;;;;;;4.63;4.23;;;17.20;99.90;;;;;;5073298;28;20465;-71
2021/09/11 05:13:29;;;;;;;4.63;4.23;;;17.20;99.90;;;;;;5072969;28;20458;-72
2021/09/11 05:15:56;;;;;;;4.57;4.17;;;17.20;99.90;;;;;;5072971;28;20490;-71
2021/09/11 05:18:23;;;;;;;4.60;4.20;;;17.20;99.90;;;;;;5072617;28;20482;-71
2021/09/11 05:20:49;;;;;;;5.23;4.83;;;17.20;99.90;;;;;;5072641;28;20469;-71
2021/09/11 05:23:16;;;;;;;5.53;4.80;;;17.20;99.90;;;;;;5073072;28;20474;-71
2021/09/11 05:25:44;;;;;;;5.00;4.60;;;17.20;99.90;;;;;;5072836;28;20451;-72
2021/09/11 05:28:11;;;;;;;5.70;4.73;;;17.20;99.90;;;;;;5072837;28;20479;-72
2021/09/11 05:30:38;;;;;;;6.20;5.67;;;17.20;99.90;;;;;;5072222;28;20455;-72
2021/09/11 05:33:04;;;;;;;5.00;4.60;;;17.20;99.90;;;;;;5072276;28;20466;-72
2021/09/11 05:35:31;;;;;;;5.37;4.97;;;17.20;99.90;;;;;;5072694;28;20478;-72
2021/09/11 05:37:58;;;;;;;4.83;4.43;;;17.20;99.90;;;;;;5072500;28;21002;-72
2021/09/11 05:40:24;;;;;;;5.33;4.83;;;17.20;99.90;;;;;;5072390;28;20462;-72
2021/09/11 05:42:52;;;;;;;6.93;5.33;;;17.20;99.90;;;;;;5072236;28;20455;-72
2021/09/11 05:45:20;;;;;;;5.03;4.63;;;17.20;99.90;;;;;;5072511;28;20458;-72
2021/09/11 05:47:46;;;;;;;5.10;4.60;;;17.20;99.90;;;;;;5071924;28;20474;-72
2021/09/11 05:50:13;;;;;;;5.20;4.80;;;17.20;99.90;;;;;;5071791;28;20462;-72
2021/09/11 05:52:40;;;;;;;4.10;3.80;;;17.20;99.90;;;;;;5072233;28;20459;-72
2021/09/11 05:55:07;;;;;;;4.77;4.37;;;17.20;99.90;;;;;;5071867;28;20509;-72
2021/09/11 05:57:34;;;;;;;6.30;4.23;;;17.20;99.90;;;;;;5072106;28;20478;-72
2021/09/11 06:00:03;;;;;;;5.03;4.60;;;17.20;99.90;;;;;;5071174;28;21330;-72
2021/09/11 06:02:30;;;;;;;5.50;4.60;;;17.20;99.90;;;;;;5072258;28;20454;-72
2021/09/11 06:04:56;;;;;;;4.80;4.40;;;17.20;99.90;;;;;;5072162;28;20465;-72
2021/09/11 06:07:23;;;;;;;5.70;5.20;;;17.20;99.90;;;;;;5071959;28;21001;-72
2021/09/11 06:09:50;;;;;;;5.10;4.57;;;17.20;99.90;;;;;;5071915;28;20469;-72
2021/09/11 06:12:17;;;;;;;4.83;4.43;;;17.20;99.90;;;;;;5071920;28;20537;-71
2021/09/11 06:14:44;;;;;;;4.83;4.43;;;17.20;99.90;;;;;;5072008;28;20470;-72
2021/09/11 06:17:12;;;;;;;5.00;4.53;;;17.20;99.90;;;;;;5134484;22;21015;-68
2021/09/11 06:19:39;;;;;;;4.47;4.07;;;17.20;99.90;;;;;;5070654;28;20877;-68
2021/09/11 06:22:10;;;;;;;5.53;4.70;;;17.20;99.90;;;;;;5070194;28;21528;-68
2021/09/11 06:24:41;;;;;;;3.90;3.60;;;17.30;99.90;;;;;;5071098;28;20454;-68
2021/09/11 06:27:08;;;;;;;4.40;4.00;;;17.20;99.90;;;;;;5050701;28;21009;-68
2021/09/11 06:29:35;;;;;;;4.93;4.10;;;17.30;99.90;;;;;;5051263;28;20458;-69
2021/09/11 06:32:02;;;;;;;3.77;3.47;;;17.30;99.90;;;;;;5070214;28;20455;-68
2021/09/11 06:34:30;;;;;;;3.90;3.60;;;17.30;99.90;;;;;;5071684;28;20454;-68
2021/09/11 06:36:57;;;;;;;3.77;3.40;;;17.30;99.90;;;;;;5071457;28;20482;-68
2021/09/11 06:39:25;;;;;;;3.60;3.30;;;17.40;99.90;;;;;;5071056;28;20481;-68
2021/09/11 06:41:52;;;;;;;3.80;3.40;;;17.40;99.90;;;;;;5071555;28;20866;-68
2021/09/11 06:44:18;;;;;;;5.63;3.67;;;17.50;99.90;;;;;;5071285;28;20568;-68
2021/09/11 06:46:45;;;;;;;3.50;3.20;;;17.60;99.90;;;;;;5070747;28;20481;-68
2021/09/11 06:49:12;;;;;;;3.67;3.37;;;17.60;99.90;;;;;;5070707;28;20471;-68
2021/09/11 06:51:40;;;;;;;4.13;3.73;;;17.70;99.90;;;;;;5071627;28;20889;-68
2021/09/11 06:54:07;;;;;;;3.57;3.27;;;17.70;99.90;;;;;;5070949;28;20455;-68
2021/09/11 06:56:34;;;;;;;3.30;3.00;;;17.70;99.90;;;;;;5071172;28;20504;-68
2021/09/11 06:59:01;;;;;;;5.00;3.83;;;17.70;99.90;;;;;;5070327;28;20478;-68
2021/09/11 07:01:27;;;;;;;3.13;2.83;;;17.70;99.90;;;;;;5071083;28;20462;-67
2021/09/11 07:03:54;;;;;;;3.90;3.33;;;17.80;99.90;;;;;;5073331;28;20984;-68
2021/09/11 07:06:21;;;;;;;3.30;3.00;;;17.80;99.90;;;;;;5091315;28;20458;-68
2021/09/11 07:08:49;;;;;;;3.43;3.13;;;17.80;99.90;;;;;;5090720;28;20477;-68
2021/09/11 07:11:16;;;;;;;3.53;2.90;;;17.80;99.90;;;;;;5090911;28;20976;-68
2021/09/11 07:13:43;;;;;;;4.13;3.37;;;17.80;99.90;;;;;;5070652;28;20454;-68
2021/09/11 07:16:09;;;;;;;3.30;3.00;;;17.90;99.90;;;;;;5070309;28;21044;-68
2021/09/11 07:18:36;;;;;;;4.03;3.63;;;17.90;99.90;;;;;;5070377;28;21016;-68
2021/09/11 07:21:04;;;;;;;3.93;3.63;;;17.90;99.90;;;;;;5070150;28;20458;-68
2021/09/11 07:23:31;;;;;;;3.53;3.23;;;18.00;99.90;;;;;;5070500;28;20957;-68
2021/09/11 07:25:59;;;;;;;3.60;3.30;;;18.00;99.90;;;;;;5070618;28;20462;-68
2021/09/11 07:28:26;;;;;;;4.00;3.60;;;18.00;99.90;;;;;;5069515;28;20494;-68
2021/09/11 07:30:52;;;;;;;4.63;4.00;;;18.10;99.90;;;;;;5069228;28;20454;-67
2021/09/11 07:33:19;;;;;;;4.20;3.90;;;18.10;99.90;;;;;;5070297;28;20473;-68
2021/09/11 07:35:46;;;;;;;4.53;4.13;;;18.20;99.90;;;;;;5070202;28;21032;-68
2021/09/11 07:38:15;;;;;;;5.10;3.53;;;18.20;99.90;;;;;;5070460;28;20850;-68
2021/09/11 07:40:41;;;;;;;4.23;3.83;;;18.30;99.90;;;;;;5069584;28;20497;-68
2021/09/11 07:43:10;;;;;;;3.93;3.57;;;18.40;99.90;;;;;;5069948;28;20458;-68
2021/09/11 07:45:37;;;;;;;4.63;4.33;;;18.40;99.90;;;;;;5069783;28;20532;-68
2021/09/11 07:48:04;;;;;;;4.30;3.90;;;18.40;99.90;;;;;;5070146;28;20483;-68
2021/09/11 07:50:31;;;;;;;9.20;3.93;;;18.50;99.90;;;;;;5069945;28;20462;-68
2021/09/11 07:52:58;;;;;;;3.60;3.27;;;18.50;99.90;;;;;;5070051;28;20455;-68
2021/09/11 07:55:25;;;;;;;4.07;3.77;;;18.50;99.90;;;;;;5070241;28;20858;-68
2021/09/11 07:57:51;;;;;;;5.00;3.83;;;18.60;99.90;;;;;;5076401;28;20481;-68
2021/09/11 08:00:19;;;;;;;4.77;4.23;;;18.60;99.90;;;;;;5075020;28;20454;-68
2021/09/11 08:02:46;;;;;;;4.70;4.30;;;18.70;99.90;;;;;;5076986;28;20466;-68
2021/09/11 08:05:13;;;;;;;4.00;3.70;;;18.70;99.90;;;;;;5075824;28;20462;-68
2021/09/11 08:07:40;;;;;;;4.23;3.80;;;18.70;99.90;;;;;;5076911;28;20488;-68
2021/09/11 08:10:08;;;;;;;4.37;3.97;;;18.80;99.90;;;;;;5076273;28;20462;-68
2021/09/11 08:12:34;;;;;;;4.10;3.70;;;18.80;99.90;;;;;;5076534;28;20462;-67
2021/09/11 08:15:01;;;;;;;4.30;3.90;;;18.80;99.90;;;;;;5076511;28;20945;-68
2021/09/11 08:17:29;;;;;;;4.93;4.53;;;18.80;99.90;;;;;;5076291;28;20573;-67
2021/09/11 08:19:56;;;;;;;4.60;4.00;;;18.80;99.90;;;;;;5076300;28;20458;-68
2021/09/11 08:22:23;;;;;;;4.20;3.90;;;18.90;99.90;;;;;;5076690;28;20469;-68
2021/09/11 08:24:50;;;;;;;5.93;4.00;;;19.00;99.90;;;;;;5076633;28;20458;-68
2021/09/11 08:27:16;;;;;;;4.63;3.83;;;19.00;99.90;;;;;;5075814;28;20474;-68
2021/09/11 08:29:44;;;;;;;3.90;3.60;;;19.20;99.90;;;;;;5078345;28;20458;-68
2021/09/11 08:32:12;;;;;;;4.70;4.23;;;19.30;99.90;;;;;;5076292;28;20887;-68
2021/09/11 08:34:40;;;;;;;4.40;4.00;;;19.30;99.90;;;;;;5076572;28;20831;-68
2021/09/11 08:37:06;;;;;;;4.27;3.87;;;19.30;99.90;;;;;;5073916;28;20485;-68
2021/09/11 08:39:33;;;;;;;4.70;4.20;;;19.30;99.90;;;;;;5075932;28;20496;-68
2021/09/11 08:42:00;;;;;;;4.10;3.60;;;19.40;99.90;;;;;;5076528;28;20474;-68
2021/09/11 08:44:28;;;;;;;4.53;4.13;;;19.40;99.90;;;;;;5071021;28;20516;-69
2021/09/11 08:46:55;;;;;;;4.60;4.20;;;19.50;99.90;;;;;;5076290;28;20454;-68
2021/09/11 08:49:22;;;;;;;4.07;3.77;;;19.60;99.90;;;;;;5075317;28;20961;-68
2021/09/11 08:51:50;;;;;;;4.23;3.93;;;19.60;99.90;;;;;;5076812;28;20462;-68
2021/09/11 08:54:19;;;;;;;4.10;3.70;;;19.70;99.90;;;;;;5075776;28;20462;-68
2021/09/11 08:56:48;;;;;;;4.40;4.00;;;19.70;99.90;;;;;;5076254;28;20486;-68
2021/09/11 08:59:16;;;;;;;4.00;3.53;;;19.70;99.90;;;;;;5075871;28;20462;-68
2021/09/11 09:01:44;;;;;;;4.20;3.80;;;19.80;99.90;;;;;;5076226;28;20465;-68
2021/09/11 09:04:11;;;;;;;4.50;3.47;;;19.80;99.90;;;;;;5076012;28;20466;-68
2021/09/11 09:06:38;;;;;;;3.57;3.27;;;19.90;99.90;;;;;;5075733;28;20459;-68
2021/09/11 09:09:10;;;;;;;3.17;2.87;;;19.90;99.90;;;;;;5072113;28;20954;-68
2021/09/11 09:11:38;;;;;;;3.93;3.53;;;20.10;99.90;;;;;;5072943;28;21285;-68
2021/09/11 09:14:11;;;;;;;3.43;3.10;;;20.10;99.90;;;;;;5072433;28;20468;-68
2021/09/11 09:16:39;;;;;;;3.67;3.37;;;20.10;99.90;;;;;;5072902;28;20482;-68
2021/09/11 09:19:14;;;;;;;3.87;3.47;;;20.10;99.90;;;;;;5071741;28;20458;-68
2021/09/11 09:21:42;;;;;;;4.10;3.23;;;20.10;99.90;;;;;;5073072;28;20465;-68
2021/09/11 09:24:13;;;;;;;4.50;3.80;;;20.00;99.90;;;;;;5072477;28;20474;-68
2021/09/11 09:26:50;;;;;;;3.67;3.37;;;19.90;99.90;;;;;;5072541;28;20953;-68
2021/09/11 09:29:18;;;;;;;3.80;3.50;;;19.90;99.90;;;;;;5071665;28;20458;-68
2021/09/11 09:31:46;;;;;;;3.40;3.10;;;20.10;99.90;;;;;;5072526;28;20477;-68
2021/09/11 09:34:29;;;;;;;3.07;2.77;;;20.20;99.90;;;;;;5072414;28;20470;-68
2021/09/11 09:36:58;;;;;;;3.17;2.90;;;20.40;99.90;;;;;;5072198;28;20518;-68
2021/09/11 09:39:26;;;;;;;3.20;2.90;;;20.50;99.90;;;;;;5071511;28;20546;-68
2021/09/11 09:42:00;;;;;;;3.40;3.10;;;20.60;99.90;;;;;;5072471;28;20454;-68
2021/09/11 09:44:27;;;;;;;3.87;3.57;;;20.70;99.90;;;;;;5072212;28;20458;-68
2021/09/11 09:46:54;;;;;;;3.67;3.37;;;20.80;99.90;;;;;;5072281;28;21080;-68
2021/09/11 09:49:22;;;;;;;3.90;3.23;;;20.90;99.90;;;;;;5071600;28;20862;-68
2021/09/11 09:51:50;;;;;;;3.37;3.00;;;21.10;99.90;;;;;;5071522;28;20961;-68
2021/09/11 09:54:17;;;;;;;3.63;3.33;;;21.20;99.90;;;;;;5071756;28;20469;-68
2021/09/11 09:56:46;;;;;;;3.43;3.13;;;21.30;99.90;;;;;;5072014;28;20509;-68
2021/09/11 09:59:13;;;;;;;3.80;3.40;;;21.50;99.90;;;;;;5071285;28;20510;-68
2021/09/11 10:01:40;;;;;;;3.30;3.00;;;21.40;99.90;;;;;;5072100;28;20469;-68
2021/09/11 10:04:15;;;;;;;2.83;2.63;;;21.70;99.90;;;;;;5071719;28;20460;-68
2021/09/11 10:06:43;;;;;;;3.33;3.10;;;22.00;99.90;;;;;;5070652;28;20458;-68
2021/09/11 10:09:13;;;;;;;5.50;2.73;;;22.30;99.90;;;;;;5071052;28;20549;-68
2021/09/11 10:11:42;;;;;;;3.20;2.90;;;22.60;99.90;;;;;;5072014;28;20458;-68
2021/09/11 10:14:13;;;;;;;4.70;3.40;;;22.90;99.90;;;;;;5071079;28;20473;-68
2021/09/11 10:16:42;;;;;;;3.27;2.97;;;23.20;99.90;;;;;;5070350;28;20490;-68
2021/09/11 10:19:16;;;;;;;3.03;2.73;;;23.40;99.90;;;;;;5070783;28;20474;-68
2021/09/11 10:21:43;;;;;;;2.77;2.57;;;23.60;99.90;;;;;;5070638;28;20470;-69
2021/09/11 10:24:31;;;;;;;4.20;2.80;;;23.90;99.90;;;;;;5071327;28;20465;-68
2021/09/11 10:27:01;;;;;;;6.60;4.27;;;24.10;99.90;;;;;;5071200;28;21053;-69
2021/09/11 10:29:58;;;;;;;4.33;3.07;;;24.30;99.90;;;;;;5071186;28;20576;-68
2021/09/11 10:32:37;;;;;;;3.20;2.90;;;24.30;99.90;;;;;;5071219;28;20456;-68
2021/09/11 10:35:06;;;;;;;3.27;2.97;;;24.40;99.90;;;;;;5071141;28;20461;-68
2021/09/11 10:37:38;;;;;;;2.77;2.57;;;24.20;99.90;;;;;;5071541;28;20482;-69
2021/09/11 10:40:25;;;;;;;3.30;3.00;;;23.90;99.90;;;;;;5070520;28;20462;-69
2021/09/11 10:43:31;;;;;;;3.03;2.80;;;23.60;99.90;;;;;;5071411;28;20481;-69
2021/09/11 10:46:08;;;;;;;3.37;3.10;;;23.50;99.90;;;;;;5069546;28;20508;-69
2021/09/11 10:48:47;;;;;;;3.47;3.17;;;23.20;99.90;;;;;;5069485;28;20527;-68
2021/09/11 10:51:29;;;;;;;2.80;2.60;;;22.90;99.90;;;;;;5070484;28;20522;-69
2021/09/11 10:54:08;;;;;;;3.10;2.67;;;22.60;99.90;;;;;;5070936;28;20459;-69
2021/09/11 10:56:37;;;;;;;3.87;3.47;;;22.40;99.90;;;;;;5070966;28;20493;-69
2021/09/11 10:59:30;;;;;;;3.17;2.97;;;22.30;99.90;;;;;;5070110;28;20542;-68
2021/09/11 11:02:01;;;;;;;3.00;2.70;;;22.10;99.90;;;;;;5070726;28;20462;-69
2021/09/11 11:04:29;;;;;;;7.70;4.97;;;21.80;99.90;;;;;;5070696;28;20462;-68
2021/09/11 11:06:58;;;;;;;12.67;5.20;;;21.50;99.90;;;;;;5070843;28;20461;-69
2021/09/11 11:09:25;;;;;;;9.20;4.93;;;21.20;99.90;;;;;;5062946;28;20466;-68
2021/09/11 11:11:55;;;;;;;7.27;3.90;;;21.00;99.90;;;;;;5070271;28;20553;-69
2021/09/11 11:14:22;;;;;;;5.93;2.70;;;20.70;99.90;;;;;;5070607;28;21087;-69
2021/09/11 11:16:50;;;;;;;4.27;3.30;;;20.50;99.90;;;;;;5070029;28;20493;-69
2021/09/11 11:19:22;;;;;;;4.00;3.30;;;20.30;99.90;;;;;;5069717;28;20466;-69
2021/09/11 11:21:57;;;;;;;5.63;3.43;;;20.10;99.90;;;;;;5070496;28;20491;-69
2021/09/11 11:24:25;;;;;;;5.70;3.77;;;19.90;99.90;;;;;;5070143;28;20462;-69
2021/09/11 11:26:52;;;;;;;5.13;3.30;;;19.80;99.90;;;;;;5069111;28;20462;-70
2021/09/11 11:29:20;;;;;;;4.10;2.70;;;19.70;99.90;;;;;;5069796;28;20462;-69
2021/09/11 11:31:48;;;;;;;4.80;3.03;;;19.50;99.90;;;;;;5069846;28;20474;-69
2021/09/11 11:34:15;;;;;;;3.30;2.57;;;19.40;99.90;;;;;;5070341;28;20462;-69
2021/09/11 11:36:51;;;;;;;3.30;2.17;;;19.40;99.90;;;;;;5070159;28;20880;-69
2021/09/11 11:39:22;;;;;;;5.60;2.73;;;19.40;99.90;;;;;;5065569;28;20462;-69
2021/09/11 11:41:57;;;;;;;3.57;2.53;;;19.30;99.90;;;;;;5069984;28;20831;-69
2021/09/11 11:44:24;;;;;;;5.87;3.30;;;19.40;99.90;;;;;;5070423;28;20461;-69
2021/09/11 11:46:54;;;;;;;3.20;2.40;;;19.50;99.90;;;;;;5070221;28;20458;-69
2021/09/11 11:49:21;;;;;;;4.07;2.43;;;19.40;99.90;;;;;;5069589;28;20465;-68
2021/09/11 11:51:54;;;;;;;6.17;3.03;;;19.40;99.90;;;;;;5070155;28;20493;-69
2021/09/11 11:54:22;;;;;;;5.70;3.00;;;19.60;99.90;;;;;;5069659;28;20470;-69
2021/09/11 11:56:51;;;;;;;3.37;3.07;;;19.70;99.90;;;;;;5069852;28;20490;-69
2021/09/11 11:59:22;;;;;;;5.00;3.13;;;19.80;99.90;;;;;;5069173;28;20451;-69
2021/09/11 12:01:49;;;;;;;4.10;3.00;;;19.80;99.90;;;;;;5070088;28;20487;-69
2021/09/11 12:04:17;;;;;;;3.20;2.80;;;19.80;99.90;;;;;;5069966;28;20458;-69
2021/09/11 12:06:49;;;;;;;2.87;2.50;;;19.80;99.90;;;;;;5068197;28;20461;-69
2021/09/11 12:09:17;;;;;;;2.60;2.40;;;19.70;99.90;;;;;;5069792;28;20471;-69
2021/09/11 12:11:46;;;;;;;2.57;2.37;;;19.70;99.90;;;;;;5069636;28;20463;-69
2021/09/11 12:14:14;;;;;;;2.50;1.97;;;19.70;99.90;;;;;;5069355;28;20494;-69
2021/09/11 12:16:44;;;;;;;2.20;2.00;;;19.70;99.90;;;;;;5097709;22;20966;-93
2021/09/11 12:19:12;;;;;;;3.10;2.10;;;19.70;99.90;;;;;;5110759;28;20442;-96
2021/09/11 12:21:39;;;;;;;3.30;2.50;;;19.70;99.90;;;;;;5116960;28;20434;-96
2021/09/11 12:27:13;;;;;;;2.73;2.53;;;19.80;99.90;;;;;;5114316;28;20457;-94
2021/09/11 12:30:08;;;;;;;3.50;3.20;;;19.90;99.90;;;;;;5116757;27;20453;-96
2021/09/11 12:33:06;;;;;;;5.77;3.27;;;20.00;99.90;;;;;;5116929;27;20541;-94
2021/09/11 12:35:33;;;;;;;3.27;2.60;;;20.20;99.90;;;;;;5117451;27;20454;-95
2021/09/11 12:38:03;;;;;;;3.60;3.30;;;20.30;99.90;;;;;;5115597;27;20476;-96
2021/09/11 12:48:41;;;;;;;4.23;3.23;;;21.40;99.90;;;;;;5118499;27;20470;-95
2021/09/11 12:56:34;;;;;;;3.03;2.83;;;21.80;99.90;;;;;;5106146;28;20464;-94
2021/09/11 12:59:01;;;;;;;2.80;2.60;;;21.70;99.90;;;;;;5103677;28;20474;-94
2021/09/11 13:01:33;;;;;;;2.50;2.30;;;21.60;99.90;;;;;;5085099;28;20465;-94
2021/09/11 13:04:01;;;;;;;3.00;2.70;;;21.60;99.90;;;;;;5070914;28;20485;-94
2021/09/11 13:06:28;;;;;;;3.23;2.80;;;21.50;99.90;;;;;;5091581;28;20458;-94
2021/09/11 13:25:47;;;;;;;2.53;2.33;;;22.20;99.90;;;;;;5099470;28;20439;-96
2021/09/11 13:28:14;;;;;;;2.67;2.47;;;22.30;99.90;;;;;;5086063;28;20494;-94